<?xml version="1.0" encoding="UTF-8" standalone="no" ?>
<gpx xmlns="http://www.topografix.com/GPX/1/1" xmlns:xsi="http://www.w3.org/2001/XMLSchema-instance" xsi:schemaLocation="http://www.topografix.com/GPX/1/1 http://www.topografix.com/GPX/1/1/gpx.xsd" version="1.1" creator="VisuGPX - https://www.visugpx.com">
  <metadata>
    <name>Reco Pilon du Roi </name>
    <desc><![CDATA[Guy, Maurice, Serge, Robert
Passage ds une propriété privée....
]]></desc>
  </metadata>
  <trk>
    <name><![CDATA[ACTIVE LOG090045]]></name>
    <trkseg>
      <trkpt lat="43.42999" lon="5.43563">
        <ele>233.914</ele>
        <time>2011-11-23T08:00:44Z</time>
      </trkpt>
      <trkpt lat="43.42998" lon="5.43563">
        <ele>235.277</ele>
        <time>2011-11-23T08:00:54Z</time>
      </trkpt>
      <trkpt lat="43.42998" lon="5.43562">
        <ele>235.633</ele>
        <time>2011-11-23T08:01:04Z</time>
      </trkpt>
      <trkpt lat="43.42997" lon="5.43562">
        <ele>235.886</ele>
        <time>2011-11-23T08:01:14Z</time>
      </trkpt>
      <trkpt lat="43.42997" lon="5.43561">
        <ele>235.827</ele>
        <time>2011-11-23T08:01:24Z</time>
      </trkpt>
      <trkpt lat="43.42997" lon="5.43561">
        <ele>236.405</ele>
        <time>2011-11-23T08:01:34Z</time>
      </trkpt>
      <trkpt lat="43.42997" lon="5.4356">
        <ele>235.337</ele>
        <time>2011-11-23T08:01:44Z</time>
      </trkpt>
      <trkpt lat="43.42997" lon="5.43561">
        <ele>235.291</ele>
        <time>2011-11-23T08:01:54Z</time>
      </trkpt>
      <trkpt lat="43.42998" lon="5.43561">
        <ele>236.297</ele>
        <time>2011-11-23T08:02:04Z</time>
      </trkpt>
      <trkpt lat="43.42997" lon="5.43561">
        <ele>235.511</ele>
        <time>2011-11-23T08:02:14Z</time>
      </trkpt>
      <trkpt lat="43.42997" lon="5.4356">
        <ele>235.611</ele>
        <time>2011-11-23T08:02:24Z</time>
      </trkpt>
      <trkpt lat="43.42998" lon="5.4356">
        <ele>235.211</ele>
        <time>2011-11-23T08:02:34Z</time>
      </trkpt>
      <trkpt lat="43.42998" lon="5.4356">
        <ele>235.469</ele>
        <time>2011-11-23T08:02:44Z</time>
      </trkpt>
      <trkpt lat="43.42998" lon="5.4356">
        <ele>235.471</ele>
        <time>2011-11-23T08:02:54Z</time>
      </trkpt>
      <trkpt lat="43.42997" lon="5.43559">
        <ele>234.869</ele>
        <time>2011-11-23T08:03:04Z</time>
      </trkpt>
      <trkpt lat="43.42998" lon="5.4356">
        <ele>234.927</ele>
        <time>2011-11-23T08:03:14Z</time>
      </trkpt>
      <trkpt lat="43.42995" lon="5.4356">
        <ele>235.108</ele>
        <time>2011-11-23T08:03:24Z</time>
      </trkpt>
      <trkpt lat="43.4299" lon="5.43566">
        <ele>234.842</ele>
        <time>2011-11-23T08:03:34Z</time>
      </trkpt>
      <trkpt lat="43.4299" lon="5.43566">
        <ele>236.811</ele>
        <time>2011-11-23T08:03:44Z</time>
      </trkpt>
      <trkpt lat="43.42991" lon="5.43563">
        <ele>236.446</ele>
        <time>2011-11-23T08:03:54Z</time>
      </trkpt>
      <trkpt lat="43.42992" lon="5.43563">
        <ele>235.801</ele>
        <time>2011-11-23T08:04:04Z</time>
      </trkpt>
      <trkpt lat="43.42993" lon="5.43568">
        <ele>235.627</ele>
        <time>2011-11-23T08:04:14Z</time>
      </trkpt>
      <trkpt lat="43.42993" lon="5.43572">
        <ele>236.222</ele>
        <time>2011-11-23T08:04:24Z</time>
      </trkpt>
      <trkpt lat="43.42993" lon="5.43573">
        <ele>235.205</ele>
        <time>2011-11-23T08:04:34Z</time>
      </trkpt>
      <trkpt lat="43.42994" lon="5.43572">
        <ele>236.216</ele>
        <time>2011-11-23T08:04:44Z</time>
      </trkpt>
      <trkpt lat="43.42994" lon="5.43572">
        <ele>236.077</ele>
        <time>2011-11-23T08:04:54Z</time>
      </trkpt>
      <trkpt lat="43.42994" lon="5.43571">
        <ele>236.849</ele>
        <time>2011-11-23T08:05:04Z</time>
      </trkpt>
      <trkpt lat="43.42996" lon="5.43573">
        <ele>236.457</ele>
        <time>2011-11-23T08:05:14Z</time>
      </trkpt>
      <trkpt lat="43.42992" lon="5.43574">
        <ele>237.265</ele>
        <time>2011-11-23T08:05:24Z</time>
      </trkpt>
      <trkpt lat="43.42985" lon="5.43576">
        <ele>237.257</ele>
        <time>2011-11-23T08:05:34Z</time>
      </trkpt>
      <trkpt lat="43.42977" lon="5.43579">
        <ele>237.299</ele>
        <time>2011-11-23T08:05:44Z</time>
      </trkpt>
      <trkpt lat="43.42968" lon="5.43589">
        <ele>237.878</ele>
        <time>2011-11-23T08:05:54Z</time>
      </trkpt>
      <trkpt lat="43.42956" lon="5.43595">
        <ele>237.484</ele>
        <time>2011-11-23T08:06:04Z</time>
      </trkpt>
      <trkpt lat="43.42946" lon="5.43603">
        <ele>238.255</ele>
        <time>2011-11-23T08:06:14Z</time>
      </trkpt>
      <trkpt lat="43.42935" lon="5.43612">
        <ele>238.684</ele>
        <time>2011-11-23T08:06:24Z</time>
      </trkpt>
      <trkpt lat="43.42922" lon="5.43621">
        <ele>235.956</ele>
        <time>2011-11-23T08:06:34Z</time>
      </trkpt>
      <trkpt lat="43.42914" lon="5.43626">
        <ele>238.12</ele>
        <time>2011-11-23T08:06:44Z</time>
      </trkpt>
      <trkpt lat="43.42915" lon="5.43626">
        <ele>239.098</ele>
        <time>2011-11-23T08:06:54Z</time>
      </trkpt>
      <trkpt lat="43.42915" lon="5.43625">
        <ele>238.888</ele>
        <time>2011-11-23T08:07:04Z</time>
      </trkpt>
      <trkpt lat="43.4291" lon="5.43627">
        <ele>238.583</ele>
        <time>2011-11-23T08:07:14Z</time>
      </trkpt>
      <trkpt lat="43.42908" lon="5.43626">
        <ele>239.544</ele>
        <time>2011-11-23T08:07:24Z</time>
      </trkpt>
      <trkpt lat="43.42906" lon="5.43621">
        <ele>240.545</ele>
        <time>2011-11-23T08:07:34Z</time>
      </trkpt>
      <trkpt lat="43.42904" lon="5.43605">
        <ele>240.697</ele>
        <time>2011-11-23T08:07:44Z</time>
      </trkpt>
      <trkpt lat="43.42903" lon="5.43583">
        <ele>242.448</ele>
        <time>2011-11-23T08:07:54Z</time>
      </trkpt>
      <trkpt lat="43.42903" lon="5.4357">
        <ele>243.242</ele>
        <time>2011-11-23T08:08:04Z</time>
      </trkpt>
      <trkpt lat="43.42902" lon="5.43559">
        <ele>241.789</ele>
        <time>2011-11-23T08:08:14Z</time>
      </trkpt>
      <trkpt lat="43.42903" lon="5.43545">
        <ele>243.588</ele>
        <time>2011-11-23T08:08:24Z</time>
      </trkpt>
      <trkpt lat="43.42903" lon="5.43538">
        <ele>246.248</ele>
        <time>2011-11-23T08:08:29Z</time>
      </trkpt>
      <trkpt lat="43.42903" lon="5.43532">
        <ele>245.259</ele>
        <time>2011-11-23T08:08:34Z</time>
      </trkpt>
      <trkpt lat="43.42901" lon="5.43524">
        <ele>246.28</ele>
        <time>2011-11-23T08:08:44Z</time>
      </trkpt>
      <trkpt lat="43.42906" lon="5.4351">
        <ele>245.972</ele>
        <time>2011-11-23T08:08:54Z</time>
      </trkpt>
      <trkpt lat="43.42906" lon="5.43495">
        <ele>247.482</ele>
        <time>2011-11-23T08:09:04Z</time>
      </trkpt>
      <trkpt lat="43.42906" lon="5.43479">
        <ele>247.811</ele>
        <time>2011-11-23T08:09:14Z</time>
      </trkpt>
      <trkpt lat="43.42902" lon="5.43465">
        <ele>248.636</ele>
        <time>2011-11-23T08:09:24Z</time>
      </trkpt>
      <trkpt lat="43.42897" lon="5.43455">
        <ele>247.718</ele>
        <time>2011-11-23T08:09:34Z</time>
      </trkpt>
      <trkpt lat="43.42897" lon="5.43449">
        <ele>248.438</ele>
        <time>2011-11-23T08:09:44Z</time>
      </trkpt>
      <trkpt lat="43.42894" lon="5.43444">
        <ele>249.729</ele>
        <time>2011-11-23T08:09:54Z</time>
      </trkpt>
      <trkpt lat="43.4289" lon="5.43433">
        <ele>250.512</ele>
        <time>2011-11-23T08:10:04Z</time>
      </trkpt>
      <trkpt lat="43.4289" lon="5.43418">
        <ele>250.073</ele>
        <time>2011-11-23T08:10:14Z</time>
      </trkpt>
      <trkpt lat="43.4289" lon="5.43403">
        <ele>251.649</ele>
        <time>2011-11-23T08:10:24Z</time>
      </trkpt>
      <trkpt lat="43.42887" lon="5.43389">
        <ele>253.79</ele>
        <time>2011-11-23T08:10:34Z</time>
      </trkpt>
      <trkpt lat="43.4289" lon="5.43372">
        <ele>253.184</ele>
        <time>2011-11-23T08:10:44Z</time>
      </trkpt>
      <trkpt lat="43.4289" lon="5.43348">
        <ele>252.23</ele>
        <time>2011-11-23T08:10:54Z</time>
      </trkpt>
      <trkpt lat="43.42893" lon="5.43328">
        <ele>253.548</ele>
        <time>2011-11-23T08:11:04Z</time>
      </trkpt>
      <trkpt lat="43.42899" lon="5.43312">
        <ele>251.323</ele>
        <time>2011-11-23T08:11:14Z</time>
      </trkpt>
      <trkpt lat="43.42897" lon="5.43297">
        <ele>251.255</ele>
        <time>2011-11-23T08:11:24Z</time>
      </trkpt>
      <trkpt lat="43.42899" lon="5.43281">
        <ele>251.013</ele>
        <time>2011-11-23T08:11:34Z</time>
      </trkpt>
      <trkpt lat="43.42897" lon="5.43272">
        <ele>250.021</ele>
        <time>2011-11-23T08:11:44Z</time>
      </trkpt>
      <trkpt lat="43.42889" lon="5.43263">
        <ele>250.443</ele>
        <time>2011-11-23T08:11:54Z</time>
      </trkpt>
      <trkpt lat="43.42885" lon="5.43248">
        <ele>249.333</ele>
        <time>2011-11-23T08:12:04Z</time>
      </trkpt>
      <trkpt lat="43.42879" lon="5.43232">
        <ele>249.299</ele>
        <time>2011-11-23T08:12:14Z</time>
      </trkpt>
      <trkpt lat="43.42875" lon="5.43217">
        <ele>249.138</ele>
        <time>2011-11-23T08:12:24Z</time>
      </trkpt>
      <trkpt lat="43.4287" lon="5.43207">
        <ele>248.868</ele>
        <time>2011-11-23T08:12:34Z</time>
      </trkpt>
      <trkpt lat="43.42865" lon="5.43192">
        <ele>248.924</ele>
        <time>2011-11-23T08:12:44Z</time>
      </trkpt>
      <trkpt lat="43.42859" lon="5.43179">
        <ele>247.654</ele>
        <time>2011-11-23T08:12:54Z</time>
      </trkpt>
      <trkpt lat="43.42852" lon="5.43171">
        <ele>246.729</ele>
        <time>2011-11-23T08:13:04Z</time>
      </trkpt>
      <trkpt lat="43.42843" lon="5.43163">
        <ele>245.582</ele>
        <time>2011-11-23T08:13:14Z</time>
      </trkpt>
      <trkpt lat="43.42837" lon="5.43166">
        <ele>243.617</ele>
        <time>2011-11-23T08:13:24Z</time>
      </trkpt>
      <trkpt lat="43.4283" lon="5.43166">
        <ele>242.178</ele>
        <time>2011-11-23T08:13:34Z</time>
      </trkpt>
      <trkpt lat="43.42822" lon="5.43166">
        <ele>240.5</ele>
        <time>2011-11-23T08:13:44Z</time>
      </trkpt>
      <trkpt lat="43.42816" lon="5.43164">
        <ele>239.812</ele>
        <time>2011-11-23T08:13:54Z</time>
      </trkpt>
      <trkpt lat="43.42815" lon="5.43159">
        <ele>240.253</ele>
        <time>2011-11-23T08:14:04Z</time>
      </trkpt>
      <trkpt lat="43.42815" lon="5.43159">
        <ele>239.372</ele>
        <time>2011-11-23T08:14:14Z</time>
      </trkpt>
      <trkpt lat="43.42816" lon="5.43159">
        <ele>239.157</ele>
        <time>2011-11-23T08:14:24Z</time>
      </trkpt>
      <trkpt lat="43.42817" lon="5.43159">
        <ele>239.508</ele>
        <time>2011-11-23T08:14:34Z</time>
      </trkpt>
      <trkpt lat="43.42815" lon="5.43155">
        <ele>239.485</ele>
        <time>2011-11-23T08:14:44Z</time>
      </trkpt>
      <trkpt lat="43.42814" lon="5.43155">
        <ele>239.958</ele>
        <time>2011-11-23T08:14:54Z</time>
      </trkpt>
      <trkpt lat="43.42814" lon="5.43152">
        <ele>239.255</ele>
        <time>2011-11-23T08:15:04Z</time>
      </trkpt>
      <trkpt lat="43.42814" lon="5.43152">
        <ele>240.29</ele>
        <time>2011-11-23T08:15:14Z</time>
      </trkpt>
      <trkpt lat="43.42817" lon="5.43146">
        <ele>239.036</ele>
        <time>2011-11-23T08:15:24Z</time>
      </trkpt>
      <trkpt lat="43.42821" lon="5.43136">
        <ele>238.276</ele>
        <time>2011-11-23T08:15:34Z</time>
      </trkpt>
      <trkpt lat="43.42823" lon="5.43124">
        <ele>237.186</ele>
        <time>2011-11-23T08:15:44Z</time>
      </trkpt>
      <trkpt lat="43.42827" lon="5.43111">
        <ele>236.697</ele>
        <time>2011-11-23T08:15:54Z</time>
      </trkpt>
      <trkpt lat="43.42829" lon="5.43097">
        <ele>236.5</ele>
        <time>2011-11-23T08:16:04Z</time>
      </trkpt>
    </trkseg>
  </trk>
</gpx>